Terminal Aerodrome Forecast
Issued by NWS

Current Version | Previous Version | Text Only | Print | Product List | Glossary Off
Versions: 1 2 3 4 5 6 7 8 9 10 11 12 13 14 15 16 17 18 19 20 21 22 23 24 25 26 27 28 29 30 31 32 33 34 35 36 37 38 39 40

000
FTUS41 KRNK 170525
TAFLWB
TAF
KLWB 170525Z 1706/1806 29013G23KT P6SM -SHSN OVC025
      TEMPO 1706/1710 5SM -SHSN SCT007 OVC012
     FM171500 27012G25KT P6SM BKN050
     FM180000 31008KT P6SM SCT045=

USA.gov is the U.S. government's official web portal to all federal, state and local government web resources and services.